Boring, Oregon
Current Conditions -  °F | °C
As of 5:53 PM on Tuesday 21 Oct 2014 (Local Time) from KTTD Reporting Station
Overcast Overcast  
Wind Chill: 58°   Ceiling: 4500
Heat Index: 58°   Visibility: 10mi
Dew Point: 51°   Wind: 5mph
Humidity: 78%   Direction: 100°E
Pressure: 29.95"   Gusts: NA
Location:  45.43°N, 122.38°W
Report Text: KTTD 220053Z 10004KT 10SM OVC045 14/11 A2995 RMK AO2 SLP140 T01440106
Loading
Personal Weather Stations






























Interactive Weather Map
Tropical Storm Tracking
New forecast layout! Learn more

10-Day Weather Forecast

Advertisements
Track Severe Weather on mobile